createdAt,value
2023-01-19T00:00:33.003Z,7.10
2023-01-19T00:03:37.187Z,6.35
2023-01-19T00:06:39.876Z,6.40
2023-01-19T00:09:42.808Z,6.13
2023-01-19T00:12:45.458Z,6.65
2023-01-19T00:15:48.095Z,7.50
2023-01-19T00:18:52.699Z,7.50
2023-01-19T00:21:55.591Z,7.82
2023-01-19T00:24:58.167Z,7.30
2023-01-19T00:28:02.012Z,7.03
2023-01-19T00:31:04.838Z,7.47
2023-01-19T00:34:09.055Z,7.00
2023-01-19T00:37:11.972Z,7.38
2023-01-19T00:40:14.835Z,7.67
2023-01-19T00:43:17.541Z,7.38
2023-01-19T00:46:20.173Z,7.00
2023-01-19T00:49:24.151Z,6.00
2023-01-19T00:52:26.833Z,6.00
2023-01-19T00:55:31.155Z,5.67
2023-01-19T00:58:33.774Z,5.57
2023-01-19T01:01:45.544Z,5.47
2023-01-19T01:04:54.864Z,5.22
2023-01-19T01:07:57.586Z,4.93
2023-01-19T01:11:00.550Z,4.77
2023-01-19T01:14:03.263Z,4.95
2023-01-19T01:17:06.191Z,5.50
2023-01-19T01:20:16.412Z,5.50
2023-01-19T01:23:22.907Z,4.70
2023-01-19T01:26:27.113Z,4.93
2023-01-19T01:29:30.399Z,4.75
2023-01-19T01:32:32.975Z,5.10
2023-01-19T01:35:37.323Z,5.60
2023-01-19T01:38:40.375Z,5.10
2023-01-19T01:41:42.996Z,4.93
2023-01-19T01:44:50.119Z,5.07
2023-01-19T01:47:55.455Z,5.60
2023-01-19T01:51:22.924Z,4.53
2023-01-19T01:54:29.345Z,6.28
2023-01-19T01:57:32.284Z,5.93
2023-01-19T02:00:53.725Z,8.60
2023-01-19T02:03:57.604Z,13.43
2023-01-19T02:07:20.405Z,31.27
2023-01-19T02:10:42.256Z,11.80
2023-01-19T02:13:46.996Z,9.20
2023-01-19T02:16:49.739Z,8.57
2023-01-19T02:19:52.541Z,8.38
2023-01-19T02:23:03.796Z,9.55
2023-01-19T02:26:10.234Z,7.53
2023-01-19T02:29:16.282Z,5.57
2023-01-19T02:32:18.982Z,5.85
2023-01-19T02:35:23.223Z,10.25
2023-01-19T02:38:28.241Z,9.82
2023-01-19T02:41:38.899Z,8.23
2023-01-19T02:44:45.593Z,6.80
2023-01-19T02:47:50.654Z,17.88
2023-01-19T02:50:57.337Z,12.60
2023-01-19T02:54:20.203Z,6.10
2023-01-19T02:57:47.923Z,5.78
2023-01-19T03:00:59.282Z,5.97
2023-01-19T03:04:11.722Z,6.72
2023-01-19T03:07:20.990Z,6.53
2023-01-19T03:10:32.492Z,6.40
2023-01-19T03:13:44.931Z,6.78
2023-01-19T03:16:53.485Z,9.00
2023-01-19T03:19:58.104Z,8.20
2023-01-19T03:23:03.844Z,6.40
2023-01-19T03:26:10.786Z,6.07
2023-01-19T03:29:18.429Z,7.88
2023-01-19T03:32:29.720Z,12.20
2023-01-19T03:35:35.684Z,9.30
2023-01-19T03:38:40.680Z,7.95
2023-01-19T03:41:44.418Z,7.40
2023-01-19T03:44:51.233Z,7.20
2023-01-19T03:47:54.977Z,6.90
2023-01-19T03:50:58.089Z,6.78
2023-01-19T03:54:01.400Z,6.97
2023-01-19T03:57:04.526Z,7.35
2023-01-19T04:00:10.584Z,7.00
2023-01-19T04:03:16.496Z,6.27
2023-01-19T04:06:19.916Z,6.40
2023-01-19T04:09:22.563Z,7.15
2023-01-19T04:12:25.323Z,6.28
2023-01-19T04:15:29.930Z,5.80
2023-01-19T04:18:34.847Z,5.93
2023-01-19T04:21:37.567Z,5.78
2023-01-19T04:24:40.179Z,5.00
2023-01-19T04:27:42.812Z,7.25
2023-01-19T04:30:50.154Z,8.98
2023-01-19T04:33:52.844Z,5.10
2023-01-19T04:36:56.018Z,5.20
2023-01-19T04:39:58.624Z,4.90
2023-01-19T04:43:01.758Z,5.60
2023-01-19T04:46:06.759Z,5.43
2023-01-19T04:49:09.637Z,5.50
2023-01-19T04:52:12.473Z,8.00
2023-01-19T04:55:15.410Z,6.28
2023-01-19T04:58:17.972Z,6.07
2023-01-19T05:01:22.200Z,6.43
2023-01-19T05:04:25.679Z,5.80
2023-01-19T05:07:28.401Z,6.03
2023-01-19T05:10:31.268Z,7.63
2023-01-19T05:13:33.968Z,6.65
2023-01-19T05:16:37.985Z,7.53
2023-01-19T05:19:40.604Z,6.90
2023-01-19T05:22:43.209Z,9.00
2023-01-19T05:25:45.933Z,9.30
2023-01-19T05:28:48.699Z,11.63
2023-01-19T05:31:52.792Z,14.30
2023-01-19T05:34:55.505Z,14.83
2023-01-19T05:37:58.268Z,15.20
2023-01-19T05:41:00.914Z,14.73
2023-01-19T05:44:03.722Z,14.38
2023-01-19T05:47:07.732Z,13.82
2023-01-19T05:50:11.204Z,12.40
2023-01-19T05:53:13.902Z,12.98
2023-01-19T05:56:16.762Z,13.00
2023-01-19T05:59:24.141Z,14.85
2023-01-19T06:02:30.207Z,15.68
2023-01-19T06:05:32.916Z,14.93
2023-01-19T06:08:36.031Z,16.50
2023-01-19T06:11:38.704Z,20.48
2023-01-19T06:14:41.417Z,20.80
2023-01-19T06:17:45.665Z,20.10
2023-01-19T06:20:48.914Z,20.63
2023-01-19T06:23:51.668Z,17.67
2023-01-19T06:26:54.919Z,16.45
2023-01-19T06:29:57.602Z,14.40
2023-01-19T06:33:03.195Z,21.38
2023-01-19T06:36:06.450Z,11.33
2023-01-19T06:39:09.724Z,11.13
2023-01-19T06:42:12.415Z,11.80
2023-01-19T06:45:15.351Z,13.02
2023-01-19T06:48:19.770Z,11.35
2023-01-19T06:51:23.229Z,13.73
2023-01-19T06:54:27.194Z,16.50
2023-01-19T06:57:30.037Z,11.57
2023-01-19T07:00:32.769Z,12.93
2023-01-19T07:03:38.045Z,8.93
2023-01-19T07:06:41.650Z,8.53
2023-01-19T07:09:44.396Z,11.30
2023-01-19T07:12:47.550Z,11.13
2023-01-19T07:15:50.609Z,11.30
2023-01-19T07:18:55.315Z,8.68
2023-01-19T07:21:58.355Z,7.93
2023-01-19T07:25:01.805Z,9.98
2023-01-19T07:28:04.789Z,9.18
2023-01-19T07:31:08.994Z,7.55
2023-01-19T07:34:13.564Z,5.32
2023-01-19T07:37:37.598Z,7.23
2023-01-19T07:40:40.301Z,9.82
2023-01-19T07:43:43.190Z,9.63
2023-01-19T07:46:46.029Z,8.38
2023-01-19T07:49:50.390Z,5.93
2023-01-19T07:52:53.671Z,5.60
2023-01-19T07:55:57.131Z,5.70
2023-01-19T07:58:59.874Z,5.85
2023-01-19T08:02:02.654Z,4.68
2023-01-19T08:05:07.338Z,4.55
2023-01-19T08:08:11.551Z,4.70
2023-01-19T08:11:15.268Z,3.20
2023-01-19T08:14:18.157Z,4.00
2023-01-19T08:17:23.726Z,3.78
2023-01-19T08:20:29.633Z,4.07
2023-01-19T08:23:32.364Z,4.10
2023-01-19T08:26:36.011Z,4.22
2023-01-19T08:29:39.045Z,4.82
2023-01-19T08:32:42.643Z,4.47
2023-01-19T08:35:51.199Z,4.45
2023-01-19T08:38:54.033Z,3.33
2023-01-19T08:41:58.203Z,3.60
2023-01-19T08:45:01.342Z,4.75
2023-01-19T08:48:06.384Z,4.63
2023-01-19T08:51:10.822Z,5.10
2023-01-19T08:54:15.074Z,5.30
2023-01-19T08:57:17.793Z,6.65
2023-01-19T09:00:22.175Z,6.30
2023-01-19T09:03:24.970Z,4.70
2023-01-19T09:06:29.270Z,5.35
2023-01-19T09:09:31.992Z,7.23
2023-01-19T09:12:34.664Z,8.60
2023-01-19T09:15:38.569Z,13.70
2023-01-19T09:18:41.935Z,9.60
2023-01-19T09:21:46.234Z,4.70
2023-01-19T09:24:51.803Z,6.40
2023-01-19T09:28:16.110Z,6.07
2023-01-19T09:31:19.032Z,4.22
2023-01-19T09:34:23.194Z,3.47
2023-01-19T09:37:28.592Z,4.10
2023-01-19T09:40:32.070Z,4.27
2023-01-19T09:43:41.999Z,4.88
2023-01-19T09:46:45.051Z,4.85
2023-01-19T09:49:50.863Z,4.78
2023-01-19T09:53:01.547Z,4.80
2023-01-19T09:56:04.944Z,6.50
2023-01-19T09:59:26.220Z,8.10
2023-01-19T10:02:36.422Z,7.75
2023-01-19T10:05:44.806Z,7.43
2023-01-19T10:09:00.920Z,6.82
2023-01-19T10:12:12.587Z,7.17
2023-01-19T10:15:23.711Z,6.30
2023-01-19T10:18:35.757Z,7.03
2023-01-19T10:21:43.359Z,5.75
2023-01-19T10:24:52.363Z,8.40
2023-01-19T10:27:55.258Z,7.20
2023-01-19T10:30:58.118Z,6.43
2023-01-19T10:34:02.295Z,6.65
2023-01-19T10:37:15.826Z,7.82
2023-01-19T10:40:28.772Z,8.05
2023-01-19T10:43:41.564Z,5.93
2023-01-19T10:46:48.664Z,7.95
2023-01-19T10:49:52.261Z,6.72
2023-01-19T10:52:57.460Z,5.38
2023-01-19T10:56:14.738Z,4.43
2023-01-19T10:59:31.772Z,4.77
2023-01-19T11:02:34.947Z,5.20
2023-01-19T11:05:42.106Z,5.70
2023-01-19T11:08:46.180Z,5.90
2023-01-19T11:11:52.747Z,7.68
2023-01-19T11:14:58.037Z,6.20
2023-01-19T11:18:02.795Z,6.93
2023-01-19T11:21:08.271Z,5.57
2023-01-19T11:24:14.840Z,6.03
2023-01-19T11:27:20.851Z,5.75
2023-01-19T11:30:26.406Z,5.07
2023-01-19T11:33:35.402Z,5.18
2023-01-19T11:36:38.144Z,5.10
2023-01-19T11:39:47.196Z,6.25
2023-01-19T11:42:51.377Z,5.60
2023-01-19T11:45:56.028Z,7.93
2023-01-19T11:49:03.283Z,9.63
2023-01-19T11:52:16.396Z,8.95
2023-01-19T11:55:24.467Z,8.20
2023-01-19T11:58:30.522Z,8.90
2023-01-19T12:01:47.813Z,9.00
2023-01-19T12:04:54.472Z,12.15
2023-01-19T12:08:00.802Z,15.23
2023-01-19T12:11:06.055Z,11.57
2023-01-19T12:14:17.561Z,10.13
2023-01-19T12:17:25.131Z,7.40
2023-01-19T12:20:31.821Z,6.55
2023-01-19T12:23:51.894Z,6.65
2023-01-19T12:26:57.357Z,9.52
2023-01-19T12:30:02.428Z,7.85
2023-01-19T12:33:22.038Z,5.27
2023-01-19T12:36:38.890Z,4.32
2023-01-19T12:39:48.679Z,5.80
2023-01-19T12:43:00.798Z,7.00
2023-01-19T12:46:19.317Z,7.68
2023-01-19T12:49:27.219Z,8.40
2023-01-19T12:52:34.313Z,6.40
2023-01-19T12:55:39.047Z,7.80
2023-01-19T12:58:50.689Z,5.05
2023-01-19T13:02:35.955Z,6.82
2023-01-19T13:06:01.160Z,6.60
2023-01-19T13:09:04.071Z,5.57
2023-01-19T13:12:24.696Z,6.68
2023-01-19T13:15:34.084Z,6.15
2023-01-19T13:18:41.694Z,8.60
2023-01-19T13:21:47.833Z,9.00
2023-01-19T13:25:08.158Z,8.18
2023-01-19T13:28:37.936Z,14.52
2023-01-19T13:31:44.762Z,12.65
2023-01-19T13:34:52.587Z,17.50
2023-01-19T13:37:59.176Z,12.93
2023-01-19T13:41:03.049Z,15.00
2023-01-19T13:44:13.083Z,16.48
2023-01-19T13:47:22.382Z,15.15
2023-01-19T13:50:27.899Z,15.30
2023-01-19T13:53:37.003Z,14.03
2023-01-19T13:56:42.084Z,15.27
2023-01-19T14:00:15.555Z,14.32
2023-01-19T14:03:55.752Z,14.45
2023-01-19T14:07:48.865Z,15.27
2023-01-19T14:11:14.835Z,17.17
2023-01-19T14:14:27.651Z,16.13
2023-01-19T14:17:51.668Z,18.00
2023-01-19T14:21:01.203Z,14.05
2023-01-19T14:24:10.286Z,17.88
2023-01-19T14:27:21.645Z,16.30
2023-01-19T14:30:26.022Z,15.02
2023-01-19T14:34:22.273Z,13.02
2023-01-19T14:37:27.177Z,14.20
2023-01-19T14:40:30.282Z,14.73
2023-01-19T14:43:34.480Z,16.43
2023-01-19T14:46:38.734Z,12.13
2023-01-19T14:49:46.908Z,14.73
2023-01-19T14:52:54.565Z,14.27
2023-01-19T14:56:00.628Z,21.23
2023-01-19T14:59:10.694Z,15.80
2023-01-19T15:02:14.133Z,17.23
2023-01-19T15:05:17.164Z,13.57
2023-01-19T15:08:27.474Z,13.23
2023-01-19T15:11:32.599Z,16.55
2023-01-19T15:14:36.700Z,18.43
2023-01-19T15:17:39.373Z,19.70
2023-01-19T15:20:42.281Z,16.45
2023-01-19T15:23:45.222Z,17.75
2023-01-19T15:26:47.933Z,16.50
2023-01-19T15:29:52.008Z,17.07
2023-01-19T15:32:54.658Z,18.83
2023-01-19T15:35:57.468Z,17.60
2023-01-19T15:39:00.423Z,13.60
2023-01-19T15:42:03.419Z,13.23
2023-01-19T15:45:30.712Z,13.20
2023-01-19T15:48:33.603Z,17.67
2023-01-19T15:51:36.293Z,16.63
2023-01-19T15:54:39.007Z,15.85
2023-01-19T15:57:41.743Z,15.15
2023-01-19T16:00:46.288Z,14.50
2023-01-19T16:03:49.621Z,19.45
2023-01-19T16:06:52.251Z,16.17
2023-01-19T16:09:54.987Z,17.33
2023-01-19T16:12:57.772Z,17.13
2023-01-19T16:16:06.427Z,15.50
2023-01-19T16:19:09.048Z,16.00
2023-01-19T16:22:12.235Z,14.50
2023-01-19T16:25:14.930Z,24.38
2023-01-19T16:28:17.637Z,21.23
2023-01-19T16:31:21.646Z,18.30
2023-01-19T16:34:25.392Z,14.63
2023-01-19T16:37:28.337Z,18.98
2023-01-19T16:40:31.203Z,24.20
2023-01-19T16:43:33.844Z,18.60
2023-01-19T16:46:39.767Z,15.67
2023-01-19T16:49:42.658Z,15.57
2023-01-19T16:52:45.805Z,18.13
2023-01-19T16:55:48.726Z,17.45
2023-01-19T16:58:53.774Z,16.10
2023-01-19T17:01:58.114Z,27.23
2023-01-19T17:05:00.831Z,17.67
2023-01-19T17:08:03.542Z,15.43
2023-01-19T17:11:09.821Z,12.85
2023-01-19T17:14:14.580Z,16.80
2023-01-19T17:17:18.912Z,13.27
2023-01-19T17:20:21.769Z,13.77
2023-01-19T17:23:24.396Z,13.27
2023-01-19T17:26:28.440Z,15.75
2023-01-19T17:29:32.150Z,17.90
2023-01-19T17:32:36.417Z,15.10
2023-01-19T17:35:39.423Z,14.52
2023-01-19T17:38:42.542Z,22.67
2023-01-19T17:41:45.296Z,14.75
2023-01-19T17:44:47.886Z,14.15
2023-01-19T17:47:51.919Z,13.03
2023-01-19T17:50:55.653Z,13.07
2023-01-19T17:53:59.430Z,12.32
2023-01-19T17:57:02.493Z,15.30
2023-01-19T18:00:07.376Z,15.07
2023-01-19T18:03:16.489Z,13.97
2023-01-19T18:06:20.278Z,10.85
2023-01-19T18:09:23.103Z,12.35
2023-01-19T18:12:26.171Z,11.75
2023-01-19T18:15:29.530Z,9.68
2023-01-19T18:18:37.271Z,12.80
2023-01-19T18:21:40.456Z,13.45
2023-01-19T18:24:44.446Z,24.75
2023-01-19T18:27:47.509Z,14.70
2023-01-19T18:30:50.613Z,15.73
2023-01-19T18:33:55.155Z,9.87
2023-01-19T18:36:58.037Z,14.57
2023-01-19T18:40:04.301Z,10.73
2023-01-19T18:43:08.150Z,12.65
2023-01-19T18:46:11.549Z,11.98
2023-01-19T18:49:16.595Z,11.87
2023-01-19T18:52:20.764Z,11.93
2023-01-19T18:55:24.183Z,10.40
2023-01-19T18:58:29.201Z,12.07
2023-01-19T19:01:35.129Z,12.68
2023-01-19T19:04:40.067Z,12.53
2023-01-19T19:07:43.112Z,12.90
2023-01-19T19:10:46.235Z,12.73
2023-01-19T19:13:52.058Z,17.23
2023-01-19T19:16:54.708Z,16.42
2023-01-19T19:19:58.997Z,12.10
2023-01-19T19:23:01.966Z,13.13
2023-01-19T19:26:06.637Z,13.50
2023-01-19T19:29:09.719Z,13.18
2023-01-19T19:32:12.801Z,14.85
2023-01-19T19:35:19.509Z,15.30
2023-01-19T19:38:22.423Z,11.48
2023-01-19T19:41:27.171Z,11.88
2023-01-19T19:44:30.237Z,15.45
2023-01-19T19:47:33.926Z,10.52
2023-01-19T19:50:37.918Z,12.97
2023-01-19T19:53:41.166Z,11.75
2023-01-19T19:56:44.504Z,10.82
2023-01-19T19:59:47.729Z,12.00
2023-01-19T20:02:50.999Z,13.02
2023-01-19T20:05:55.133Z,10.87
2023-01-19T20:08:58.041Z,12.00
2023-01-19T20:12:01.232Z,10.02
2023-01-19T20:15:04.368Z,12.50
2023-01-19T20:18:07.721Z,10.75
2023-01-19T20:21:14.034Z,11.03
2023-01-19T20:24:19.860Z,11.82
2023-01-19T20:27:22.830Z,11.82
2023-01-19T20:30:26.732Z,13.18
2023-01-19T20:33:29.663Z,12.20
2023-01-19T20:36:34.292Z,14.37
2023-01-19T20:39:37.516Z,12.82
2023-01-19T20:42:41.373Z,13.80
2023-01-19T20:45:45.203Z,16.15
2023-01-19T20:48:52.910Z,17.13
2023-01-19T20:51:57.770Z,19.73
2023-01-19T20:55:00.762Z,16.50
2023-01-19T20:58:03.629Z,15.35
2023-01-19T21:01:11.474Z,14.82
2023-01-19T21:04:15.223Z,9.20
2023-01-19T21:07:19.238Z,11.07
2023-01-19T21:10:22.219Z,11.20
2023-01-19T21:13:25.154Z,11.68
2023-01-19T21:16:30.333Z,12.27
2023-01-19T21:19:32.982Z,12.98
2023-01-19T21:22:37.097Z,11.17
2023-01-19T21:25:39.869Z,11.02
2023-01-19T21:28:42.750Z,11.90
2023-01-19T21:31:45.929Z,11.05
2023-01-19T21:34:48.780Z,11.25
2023-01-19T21:37:52.811Z,9.97
2023-01-19T21:40:56.550Z,11.90
2023-01-19T21:44:00.495Z,11.35
2023-01-19T21:47:06.674Z,11.73
2023-01-19T21:50:11.079Z,11.27
2023-01-19T21:53:15.190Z,10.97
2023-01-19T21:56:18.487Z,11.20
2023-01-19T21:59:22.228Z,12.07
2023-01-19T22:02:37.968Z,11.30
2023-01-19T22:05:41.501Z,8.60
2023-01-19T22:08:46.549Z,10.47
2023-01-19T22:11:49.540Z,11.52
2023-01-19T22:14:52.224Z,10.63
2023-01-19T22:17:54.806Z,11.00
2023-01-19T22:21:07.585Z,9.85
2023-01-19T22:24:12.911Z,10.90
2023-01-19T22:27:15.673Z,10.50
2023-01-19T22:30:18.933Z,10.85
2023-01-19T22:33:21.674Z,10.60
2023-01-19T22:36:25.864Z,11.23
2023-01-19T22:39:29.950Z,10.63
2023-01-19T22:42:32.547Z,12.27
2023-01-19T22:45:35.528Z,11.40
2023-01-19T22:48:38.348Z,10.57
2023-01-19T22:51:41.415Z,11.73
2023-01-19T22:54:45.390Z,10.53
2023-01-19T22:57:48.081Z,9.60
2023-01-19T23:00:50.849Z,10.60
2023-01-19T23:03:54.282Z,10.65
2023-01-19T23:06:56.909Z,9.98
2023-01-19T23:10:00.906Z,10.13
2023-01-19T23:13:03.835Z,10.85
2023-01-19T23:16:07.511Z,10.15
2023-01-19T23:19:12.169Z,10.90
2023-01-19T23:22:14.791Z,10.45
2023-01-19T23:25:18.805Z,10.30
2023-01-19T23:28:21.445Z,10.32
2023-01-19T23:31:26.424Z,10.48
2023-01-19T23:34:29.121Z,10.00
2023-01-19T23:37:31.732Z,10.30
2023-01-19T23:40:35.780Z,10.33
2023-01-19T23:43:38.749Z,10.32
2023-01-19T23:46:41.397Z,11.15
2023-01-19T23:49:44.305Z,10.90
2023-01-19T23:52:47.030Z,10.68
2023-01-19T23:55:51.049Z,10.10
2023-01-19T23:58:55.726Z,9.77
